Time;durP1;ratioP1;P1;durP2;ratioP2;P2;SDS_P1;SDS_P2;PMS_P1;PMS_P2;Temp;Humidity;BMP_temperature;BMP_pressure;BME280_temperature;BME280_humidity;BME280_pressure;Samples;Min_cycle;Max_cycle;Signal;HPM_P1;HPM_P2
2022/08/24 00:03:27;;;;;;;22.27;18.02;;;26.00;60.50;;;;;;4750931;55;21059;-32
2022/08/24 00:08:28;;;;;;;20.88;17.58;;;26.00;60.50;;;;;;4745043;55;21067;-29
2022/08/24 00:13:29;;;;;;;20.80;17.95;;;26.00;60.50;;;;;;4785603;55;20980;-27
2022/08/24 00:18:30;;;;;;;20.42;17.30;;;26.00;60.60;;;;;;4785639;55;21478;-29
2022/08/24 00:23:31;;;;;;;21.20;17.80;;;26.00;61.20;;;;;;4736336;59;21004;-29
2022/08/24 00:28:34;;;;;;;20.33;17.10;;;26.00;60.60;;;;;;4739500;55;21020;-28
2022/08/24 00:33:36;;;;;;;20.55;17.23;;;26.00;60.60;;;;;;4748880;55;21059;-33
2022/08/24 00:38:36;;;;;;;19.40;16.48;;;26.00;60.50;;;;;;4788305;55;21016;-34
2022/08/24 00:43:37;;;;;;;19.92;16.70;;;26.00;60.60;;;;;;4784000;55;21055;-29
2022/08/24 00:48:41;;;;;;;20.17;16.35;;;26.00;60.70;;;;;;4775185;55;20996;-30
2022/08/24 00:53:48;;;;;;;18.08;16.17;;;26.00;60.60;;;;;;4743708;55;20999;-28
2022/08/24 00:59:06;;;;;;;19.25;16.23;;;25.90;60.60;;;;;;4750387;55;21056;-27
2022/08/24 01:04:14;;;;;;;19.65;16.00;;;26.00;60.60;;;;;;4737272;59;21049;-25
2022/08/24 01:09:17;;;;;;;20.37;16.70;;;26.00;60.60;;;;;;4735809;59;21585;-30
2022/08/24 01:14:20;;;;;;;20.50;16.52;;;26.00;60.60;;;;;;4742723;55;21565;-28
2022/08/24 01:19:55;;;;;;;18.65;14.95;;;26.00;60.70;;;;;;4765759;55;21051;-27
2022/08/24 01:24:56;;;;;;;18.97;15.97;;;25.90;60.60;;;;;;4736863;59;20991;-31
2022/08/24 01:30:03;;;;;;;21.48;16.12;;;25.90;60.60;;;;;;4762567;55;21498;-27
2022/08/24 01:35:05;;;;;;;18.37;15.65;;;25.90;60.60;;;;;;4736564;59;21505;-27
2022/08/24 01:40:07;;;;;;;18.80;15.27;;;25.90;60.70;;;;;;4753376;55;21082;-27
2022/08/24 01:45:09;;;;;;;21.25;16.08;;;26.00;60.70;;;;;;4808146;55;21068;-31
2022/08/24 01:50:10;;;;;;;17.60;15.48;;;25.90;60.70;;;;;;4736931;59;21478;-29
2022/08/24 01:55:14;;;;;;;17.08;14.32;;;25.90;60.80;;;;;;4793378;55;21081;-26
2022/08/24 02:00:15;;;;;;;18.48;15.65;;;25.90;60.70;;;;;;4758765;55;21485;-29
2022/08/24 02:05:16;;;;;;;19.48;15.82;;;25.90;60.70;;;;;;4771925;55;21043;-31
2022/08/24 02:10:17;;;;;;;17.65;15.30;;;25.90;60.80;;;;;;4740689;55;21577;-26
2022/08/24 02:15:18;;;;;;;18.12;15.27;;;25.90;60.80;;;;;;4742965;55;20975;-35
2022/08/24 02:20:20;;;;;;;16.67;14.87;;;26.00;60.90;;;;;;4772762;55;21008;-33
2022/08/24 02:25:22;;;;;;;16.90;14.18;;;26.00;60.90;;;;;;4745953;55;21497;-32
2022/08/24 02:30:24;;;;;;;18.20;14.98;;;25.90;60.80;;;;;;4760455;55;21604;-29
2022/08/24 02:35:27;;;;;;;18.92;15.02;;;25.90;60.80;;;;;;4737991;55;21043;-29
2022/08/24 02:40:28;;;;;;;17.23;14.90;;;25.90;60.90;;;;;;4758461;55;21047;-28
2022/08/24 02:45:29;;;;;;;18.65;15.52;;;25.90;60.80;;;;;;4748121;55;21456;-25
2022/08/24 02:50:30;;;;;;;18.08;15.52;;;25.90;60.90;;;;;;4749133;55;21062;-25
2022/08/24 02:55:31;;;;;;;17.35;14.87;;;25.90;60.90;;;;;;4736640;59;21992;-27
2022/08/24 03:00:32;;;;;;;16.67;14.43;;;25.90;60.90;;;;;;4736255;59;21074;-27
2022/08/24 03:05:34;;;;;;;16.98;14.63;;;25.90;60.90;;;;;;4748704;55;20979;-27
2022/08/24 03:10:35;;;;;;;17.23;14.73;;;25.90;60.90;;;;;;4736468;59;21502;-27
2022/08/24 03:15:35;;;;;;;18.90;15.60;;;25.90;60.90;;;;;;4736239;59;21051;-27
2022/08/24 03:20:38;;;;;;;19.62;15.73;;;25.90;60.90;;;;;;4767753;55;21109;-27
2022/08/24 03:25:38;;;;;;;17.00;14.80;;;25.90;61.00;;;;;;4749130;55;21541;-29
2022/08/24 03:30:42;;;;;;;18.62;15.15;;;25.90;61.00;;;;;;4744752;55;21046;-29
2022/08/24 03:35:43;;;;;;;18.37;14.95;;;25.90;61.00;;;;;;4742620;55;22057;-27
2022/08/24 03:40:44;;;;;;;18.87;14.52;;;25.90;61.10;;;;;;4742840;55;21022;-28
2022/08/24 03:45:45;;;;;;;16.83;14.85;;;25.90;61.10;;;;;;4776255;55;20992;-34
2022/08/24 03:50:45;;;;;;;16.67;14.87;;;26.00;61.20;;;;;;4756697;55;21015;-27
2022/08/24 03:55:46;;;;;;;16.33;14.48;;;25.90;61.10;;;;;;4761896;55;21070;-28
2022/08/24 04:00:48;;;;;;;17.60;14.52;;;25.90;61.20;;;;;;4781920;55;20972;-29
2022/08/24 04:05:49;;;;;;;18.60;14.60;;;25.90;61.20;;;;;;4754832;55;21534;-27
2022/08/24 04:10:50;;;;;;;16.58;14.63;;;25.90;61.20;;;;;;4756015;55;21044;-33
2022/08/24 04:15:51;;;;;;;16.23;14.32;;;25.90;61.30;;;;;;4757238;55;20983;-27
2022/08/24 04:20:52;;;;;;;16.42;14.55;;;25.90;61.40;;;;;;4755739;55;21473;-28
2022/08/24 04:25:53;;;;;;;18.55;14.73;;;25.90;61.40;;;;;;4744106;55;21019;-27
2022/08/24 04:30:54;;;;;;;15.30;13.70;;;25.90;61.40;;;;;;4735942;59;21007;-28
2022/08/24 04:35:55;;;;;;;15.45;13.80;;;25.90;61.40;;;;;;4773386;55;21035;-26
2022/08/24 04:40:56;;;;;;;17.35;13.75;;;25.90;61.40;;;;;;4736888;57;21007;-30
2022/08/24 04:45:56;;;;;;;16.70;13.50;;;25.90;61.40;;;;;;4736086;59;20984;-27
2022/08/24 04:51:02;;;;;;;16.83;13.90;;;25.90;61.40;;;;;;4738034;55;21502;-27
2022/08/24 04:56:08;;;;;;;17.23;13.37;;;25.90;61.50;;;;;;4754962;55;20983;-27
2022/08/24 05:01:16;;;;;;;18.87;13.48;;;25.90;61.50;;;;;;4783153;55;20988;-30
2022/08/24 05:06:19;;;;;;;17.52;13.82;;;25.90;61.50;;;;;;4777314;55;21485;-29
2022/08/24 05:11:22;;;;;;;15.00;13.40;;;25.90;61.50;;;;;;4754237;55;21102;-34
2022/08/24 05:16:27;;;;;;;13.75;12.30;;;25.90;61.50;;;;;;4760815;55;21503;-29
2022/08/24 05:21:29;;;;;;;14.10;12.35;;;25.90;61.50;;;;;;4736921;59;21022;-30
2022/08/24 05:26:30;;;;;;;14.73;12.45;;;25.90;61.50;;;;;;4768653;55;21525;-32
2022/08/24 05:31:32;;;;;;;15.65;12.50;;;25.90;61.50;;;;;;4809732;55;21075;-31
2022/08/24 05:36:39;;;;;;;14.20;12.45;;;25.90;61.50;;;;;;4736659;55;21040;-27
2022/08/24 05:41:42;;;;;;;15.50;12.73;;;25.90;61.50;;;;;;4775567;55;21095;-26
2022/08/24 05:46:44;;;;;;;13.60;11.75;;;25.90;61.60;;;;;;4749430;55;21000;-27
2022/08/24 05:51:45;;;;;;;14.40;11.93;;;25.90;61.50;;;;;;4738356;55;22109;-28
2022/08/24 05:56:46;;;;;;;13.55;11.95;;;25.90;61.50;;;;;;4754222;55;21009;-28
2022/08/24 06:01:47;;;;;;;14.23;12.73;;;25.90;61.50;;;;;;4754614;55;22050;-30
2022/08/24 06:06:48;;;;;;;14.30;12.48;;;25.90;61.50;;;;;;4737850;55;21067;-27
2022/08/24 06:11:49;;;;;;;14.05;12.05;;;25.90;61.60;;;;;;4776095;55;22405;-31
2022/08/24 06:16:51;;;;;;;12.98;11.40;;;25.90;61.70;;;;;;4768724;55;21087;-28
2022/08/24 06:21:53;;;;;;;13.70;12.30;;;25.90;61.60;;;;;;4775470;55;22157;-29
2022/08/24 06:32:13;;;;;;;13.07;11.65;;;25.90;61.60;;;;;;4735666;55;21164;-28
2022/08/24 06:37:14;;;;;;;13.05;11.68;;;25.90;61.60;;;;;;4748607;55;21865;-27
2022/08/24 06:42:15;;;;;;;12.13;10.68;;;25.90;61.60;;;;;;4829078;55;20992;-27
2022/08/24 06:47:16;;;;;;;12.73;11.43;;;25.90;61.60;;;;;;4736941;55;20987;-28
2022/08/24 06:52:17;;;;;;;12.37;10.85;;;25.90;61.60;;;;;;4736278;55;21060;-30
2022/08/24 06:57:18;;;;;;;13.40;10.10;;;25.90;61.60;;;;;;4748951;55;21070;-26
2022/08/24 07:02:20;;;;;;;17.67;11.57;;;25.80;63.20;;;;;;4749518;55;21549;-28
2022/08/24 07:07:20;;;;;;;21.17;13.68;;;25.70;63.70;;;;;;4736499;59;21463;-31
2022/08/24 07:12:22;;;;;;;18.35;13.15;;;25.70;64.10;;;;;;4774178;55;21015;-36
2022/08/24 07:17:23;;;;;;;25.73;18.00;;;25.70;64.10;;;;;;4748254;55;21525;-27
2022/08/24 07:22:24;;;;;;;24.00;17.48;;;25.70;64.30;;;;;;4763616;55;21024;-35
2022/08/24 07:27:25;;;;;;;27.33;19.48;;;25.70;64.30;;;;;;4750057;55;21012;-36
2022/08/24 07:32:27;;;;;;;30.02;20.37;;;25.70;64.40;;;;;;4751170;55;21016;-35
2022/08/24 07:37:28;;;;;;;28.12;21.33;;;25.70;64.30;;;;;;4793541;55;21589;-36
2022/08/24 07:42:29;;;;;;;32.25;23.17;;;25.60;64.50;;;;;;4742037;55;21047;-37
2022/08/24 07:47:30;;;;;;;47.50;37.33;;;25.60;64.40;;;;;;4775096;55;21019;-37
2022/08/24 07:52:31;;;;;;;43.55;37.65;;;25.60;64.50;;;;;;4744247;55;21007;-26
2022/08/24 07:57:33;;;;;;;45.75;36.15;;;25.70;64.80;;;;;;4748048;55;21538;-36
2022/08/24 08:02:34;;;;;;;42.78;34.78;;;25.60;64.80;;;;;;4749325;55;21525;-37
2022/08/24 08:07:35;;;;;;;28.02;20.85;;;25.60;64.80;;;;;;4736521;59;21546;-28
2022/08/24 08:12:36;;;;;;;21.20;16.73;;;25.60;65.10;;;;;;4761168;55;21007;-36
2022/08/24 08:17:38;;;;;;;25.50;16.73;;;25.60;65.20;;;;;;4737722;55;21007;-31
2022/08/24 08:27:58;;;;;;;16.95;13.48;;;25.60;65.30;;;;;;4735328;55;21067;-30
2022/08/24 08:32:59;;;;;;;15.25;13.40;;;25.70;65.40;;;;;;4757561;55;21004;-28
2022/08/24 08:38:00;;;;;;;19.27;12.82;;;25.70;64.80;;;;;;4743996;55;21063;-29
2022/08/24 08:43:09;;;;;;;17.15;12.98;;;25.80;64.50;;;;;;4741937;55;21043;-26
2022/08/24 08:51:29;;;;;;;19.42;12.35;;;25.80;64.20;;;;;;4777251;55;21550;-33
2022/08/24 08:57:45;;;;;;;38.33;26.67;;;25.90;63.90;;;;;;4744126;55;20972;-28
2022/08/24 09:04:41;;;;;;;30.75;20.48;;;25.80;64.40;;;;;;4739584;55;20995;-27
2022/08/24 09:11:59;;;;;;;21.70;15.23;;;25.70;64.80;;;;;;4743835;55;21099;-31
2022/08/24 09:17:49;;;;;;;17.45;12.85;;;25.60;64.80;;;;;;4758158;55;21107;-27
2022/08/24 09:23:17;;;;;;;20.40;11.73;;;25.60;64.60;;;;;;4763257;55;20991;-30
2022/08/24 09:30:04;;;;;;;18.15;13.75;;;25.60;64.80;;;;;;4759092;55;21098;-27
2022/08/24 09:35:14;;;;;;;39.80;27.95;;;25.60;65.00;;;;;;4750822;55;21078;-33
2022/08/24 09:46:24;;;;;;;50.55;38.38;;;25.60;65.10;;;;;;4753092;55;21010;-33
2022/08/24 09:53:03;;;;;;;82.10;55.80;;;25.60;65.70;;;;;;4783637;55;21011;-33
2022/08/24 09:59:44;;;;;;;91.65;64.00;;;25.70;64.90;;;;;;4748852;55;21031;-33
2022/08/24 10:05:11;;;;;;;86.15;60.92;;;25.70;64.90;;;;;;4736008;59;21488;-28
2022/08/24 10:10:30;;;;;;;78.85;57.42;;;25.70;65.10;;;;;;4751025;55;21019;-35
2022/08/24 10:16:04;;;;;;;84.10;56.90;;;25.80;64.60;;;;;;4784332;55;21525;-31
2022/08/24 10:24:07;;;;;;;73.75;54.75;;;25.80;64.50;;;;;;4736431;59;21040;-33
2022/08/24 10:31:13;;;;;;;80.47;53.72;;;25.90;64.30;;;;;;4754022;55;21567;-34
2022/08/24 10:36:29;;;;;;;72.90;50.92;;;25.90;64.00;;;;;;4760015;55;21438;-36
2022/08/24 10:43:52;;;;;;;68.90;49.83;;;25.90;63.70;;;;;;4755712;55;21038;-25
2022/08/24 10:50:29;;;;;;;62.40;47.97;;;26.00;63.60;;;;;;4754561;55;21473;-26
2022/08/24 10:55:33;;;;;;;60.90;46.65;;;26.00;63.50;;;;;;4736171;55;21502;-34
2022/08/24 11:00:34;;;;;;;60.33;46.75;;;26.00;63.30;;;;;;4750891;55;21453;-29
2022/08/24 11:05:50;;;;;;;58.63;45.53;;;26.00;63.30;;;;;;4802049;55;21055;-33
2022/08/24 11:11:13;;;;;;;61.00;44.88;;;26.00;63.20;;;;;;4749327;55;21079;-32
2022/08/24 11:16:24;;;;;;;58.78;45.35;;;26.10;63.20;;;;;;4760136;55;20976;-34
2022/08/24 11:28:24;;;;;;;57.97;45.05;;;26.00;63.00;;;;;;4791494;55;21477;-32
2022/08/24 11:33:45;;;;;;;53.75;42.67;;;26.10;63.00;;;;;;4741178;55;21047;-28
2022/08/24 11:38:48;;;;;;;55.47;43.95;;;26.10;62.90;;;;;;4745679;55;21055;-27
2022/08/24 11:45:39;;;;;;;55.70;42.50;;;26.10;62.90;;;;;;4773359;55;21712;-28
2022/08/24 11:53:43;;;;;;;52.75;43.08;;;26.00;62.80;;;;;;4741941;55;21557;-25
2022/08/24 11:59:02;;;;;;;53.03;42.70;;;26.10;62.80;;;;;;4736003;55;21053;-31
2022/08/24 12:04:34;;;;;;;51.65;39.83;;;26.10;62.70;;;;;;4741993;55;21003;-32
2022/08/24 12:16:31;;;;;;;51.90;40.75;;;26.10;62.80;;;;;;4748739;55;21027;-30
2022/08/24 12:21:37;;;;;;;34.75;27.20;;;26.00;64.20;;;;;;4747668;55;21477;-30
2022/08/24 12:26:46;;;;;;;27.77;22.20;;;25.90;65.00;;;;;;4755336;55;20991;-31
2022/08/24 12:32:08;;;;;;;23.87;18.73;;;25.80;65.60;;;;;;4742391;55;21056;-30
2022/08/24 12:37:23;;;;;;;37.85;26.27;;;25.80;66.40;;;;;;4761645;55;21086;-30
2022/08/24 12:42:39;;;;;;;74.28;49.53;;;25.80;66.70;;;;;;4814119;55;21067;-34
2022/08/24 12:48:07;;;;;;;59.90;41.08;;;25.70;67.00;;;;;;4744697;55;21031;-26
2022/08/24 12:53:36;;;;;;;60.03;40.90;;;25.70;67.00;;;;;;4735947;59;21063;-32
2022/08/24 13:03:45;;;;;;;61.42;40.22;;;25.80;66.40;;;;;;4754067;55;22050;-32
2022/08/24 13:08:49;;;;;;;57.97;40.00;;;26.00;66.20;;;;;;4825883;55;21000;-36
2022/08/24 13:14:33;;;;;;;59.92;40.22;;;26.00;66.10;;;;;;4753744;55;21523;-36
2022/08/24 13:19:43;;;;;;;56.20;38.10;;;26.10;66.20;;;;;;4746225;55;21145;-36
2022/08/24 13:24:47;;;;;;;55.00;37.50;;;26.10;65.90;;;;;;4752913;55;21003;-34
2022/08/24 13:30:17;;;;;;;50.80;36.97;;;26.10;65.70;;;;;;4762286;55;21485;-26
2022/08/24 13:38:43;;;;;;;53.05;35.78;;;26.10;65.50;;;;;;4756122;55;20976;-34
2022/08/24 13:47:30;;;;;;;45.88;34.78;;;26.10;65.30;;;;;;4783109;55;21103;-32
2022/08/24 13:52:47;;;;;;;47.38;34.45;;;26.10;65.20;;;;;;4742239;55;20999;-37
2022/08/24 13:58:02;;;;;;;;;;;26.10;65.00;;;;;;4779907;55;21111;-30
2022/08/24 14:05:53;;;;;;;47.88;35.42;;;26.20;65.00;;;;;;4751916;55;20145;-34
2022/08/24 14:14:42;;;;;;;44.35;34.03;;;26.10;64.80;;;;;;4737582;55;21043;-34
2022/08/24 14:20:08;;;;;;;41.95;32.53;;;26.20;64.80;;;;;;4780320;55;21767;-33
2022/08/24 14:25:20;;;;;;;45.63;32.88;;;26.20;64.70;;;;;;4784890;55;21027;-35
2022/08/24 14:30:43;;;;;;;43.75;33.55;;;26.20;64.70;;;;;;4753007;55;20979;-33
2022/08/24 14:36:17;;;;;;;46.88;33.45;;;26.10;64.50;;;;;;4758396;55;20983;-29
2022/08/24 14:41:47;;;;;;;44.08;32.95;;;26.20;64.60;;;;;;4767039;55;21480;-27
2022/08/24 14:46:54;;;;;;;43.30;32.83;;;26.10;64.60;;;;;;4736902;55;21035;-34
2022/08/24 14:54:16;;;;;;;43.55;32.45;;;26.10;64.60;;;;;;4735857;59;21071;-33
2022/08/24 15:00:58;;;;;;;42.60;31.45;;;26.10;64.60;;;;;;4751653;55;21502;-27
2022/08/24 15:06:42;;;;;;;40.05;31.92;;;26.10;64.70;;;;;;4749467;55;21525;-33
2022/08/24 15:11:46;;;;;;;37.75;29.90;;;26.10;64.70;;;;;;4738219;55;21525;-27
2022/08/24 15:16:52;;;;;;;40.35;30.45;;;26.00;64.60;;;;;;4736545;59;21481;-34
2022/08/24 15:22:11;;;;;;;41.50;31.67;;;26.00;64.60;;;;;;4758567;55;21145;-34
2022/08/24 15:27:47;;;;;;;38.42;30.48;;;26.00;64.60;;;;;;4769320;55;20960;-29
2022/08/24 15:32:52;;;;;;;37.15;29.63;;;26.00;64.60;;;;;;4736651;55;21075;-38
2022/08/24 15:37:53;;;;;;;39.92;30.05;;;26.00;64.50;;;;;;4736214;55;21087;-28
2022/08/24 15:43:02;;;;;;;39.95;31.12;;;26.00;64.50;;;;;;4783091;55;21007;-33
2022/08/24 15:48:03;;;;;;;35.75;29.98;;;26.00;64.50;;;;;;4819525;55;21446;-29
2022/08/24 15:53:29;;;;;;;35.83;28.87;;;26.00;64.50;;;;;;4767024;55;21640;-29
2022/08/24 15:58:37;;;;;;;36.95;28.55;;;26.00;64.50;;;;;;4736343;59;21309;-29
2022/08/24 16:03:51;;;;;;;37.13;29.25;;;26.00;64.50;;;;;;4738196;55;21106;-33
2022/08/24 16:10:52;;;;;;;35.28;28.60;;;26.00;64.50;;;;;;4748440;55;21051;-29
2022/08/24 16:16:11;;;;;;;35.08;28.30;;;25.90;64.40;;;;;;4752215;55;20991;-29
2022/08/24 16:21:29;;;;;;;36.50;28.23;;;25.90;64.40;;;;;;4755530;55;20984;-30
2022/08/24 16:26:48;;;;;;;38.40;28.98;;;25.90;64.30;;;;;;4749561;55;21054;-28
2022/08/24 16:31:53;;;;;;;36.70;28.62;;;25.90;64.30;;;;;;4769012;55;21521;-29
2022/08/24 16:36:55;;;;;;;35.67;28.80;;;25.90;64.30;;;;;;4777390;55;21494;-30
2022/08/24 16:42:01;;;;;;;37.58;29.12;;;26.00;64.30;;;;;;4736534;59;21027;-28
2022/08/24 16:47:04;;;;;;;34.63;28.02;;;25.90;64.30;;;;;;4756038;55;21095;-29
2022/08/24 16:52:05;;;;;;;34.22;27.87;;;25.90;64.10;;;;;;4757169;55;20991;-26
2022/08/24 16:57:17;;;;;;;35.35;28.67;;;25.90;64.10;;;;;;4782744;55;21103;-36
2022/08/24 17:02:20;;;;;;;32.72;27.42;;;25.90;64.10;;;;;;4739297;55;20987;-37
2022/08/24 17:07:25;;;;;;;32.45;27.25;;;25.90;64.10;;;;;;4761605;55;21577;-32
2022/08/24 17:12:26;;;;;;;32.15;27.23;;;25.90;64.10;;;;;;4737027;55;20992;-35
2022/08/24 17:17:27;;;;;;;34.15;27.42;;;25.90;64.10;;;;;;4736273;59;21003;-36
2022/08/24 17:22:28;;;;;;;34.22;27.80;;;25.90;64.00;;;;;;4749579;55;21525;-29
2022/08/24 17:27:31;;;;;;;34.95;28.02;;;25.90;64.10;;;;;;4739484;55;21020;-33
2022/08/24 17:32:32;;;;;;;33.80;27.83;;;25.90;64.00;;;;;;4753965;55;21016;-29
2022/08/24 17:37:33;;;;;;;33.75;27.70;;;25.90;64.00;;;;;;4751674;55;21027;-27
2022/08/24 17:42:33;;;;;;;35.40;28.08;;;25.90;63.90;;;;;;4785762;55;21026;-30
2022/08/24 17:47:35;;;;;;;32.13;26.30;;;25.90;63.90;;;;;;4736317;55;20996;-30
2022/08/24 17:52:37;;;;;;;31.52;26.17;;;25.90;64.00;;;;;;4764321;55;21062;-27
2022/08/24 17:57:39;;;;;;;31.27;26.65;;;25.90;63.90;;;;;;4736874;55;21152;-31
2022/08/24 18:02:41;;;;;;;30.73;25.98;;;25.90;63.90;;;;;;4820441;55;21071;-29
2022/08/24 18:07:49;;;;;;;33.05;25.52;;;25.90;63.90;;;;;;4759021;55;21123;-29
2022/08/24 18:12:50;;;;;;;32.58;26.00;;;25.90;63.90;;;;;;4736135;59;21542;-31
2022/08/24 18:17:52;;;;;;;31.05;25.65;;;25.90;63.90;;;;;;4834402;55;21497;-39
2022/08/24 18:22:53;;;;;;;31.37;25.23;;;25.90;63.90;;;;;;4746811;55;21035;-36
2022/08/24 18:27:56;;;;;;;31.23;24.90;;;25.90;63.90;;;;;;4750665;55;20980;-28
2022/08/24 18:33:00;;;;;;;29.90;25.25;;;25.90;63.90;;;;;;4745630;55;21059;-27
2022/08/24 18:38:01;;;;;;;30.62;24.75;;;25.90;63.90;;;;;;4739047;55;21454;-27
2022/08/24 18:43:02;;;;;;;30.20;25.15;;;25.90;63.80;;;;;;4743897;55;21012;-27
2022/08/24 18:48:03;;;;;;;28.00;24.40;;;25.90;63.90;;;;;;4736759;59;20980;-28
2022/08/24 18:53:04;;;;;;;28.70;24.25;;;25.90;63.80;;;;;;4756387;55;20984;-27
2022/08/24 18:58:06;;;;;;;29.65;24.20;;;25.90;63.90;;;;;;4757973;55;20983;-31
2022/08/24 19:03:09;;;;;;;27.13;23.58;;;25.90;63.80;;;;;;4737153;59;21493;-28
2022/08/24 19:08:11;;;;;;;27.23;23.90;;;25.90;63.80;;;;;;4778628;55;21046;-36
2022/08/24 19:13:17;;;;;;;27.17;22.75;;;25.90;63.80;;;;;;4751521;55;21035;-28
2022/08/24 19:18:20;;;;;;;26.10;22.92;;;25.90;63.80;;;;;;4769862;55;21505;-28
2022/08/24 19:23:27;;;;;;;27.13;22.35;;;25.80;63.70;;;;;;4736377;59;21505;-33
2022/08/24 19:28:28;;;;;;;27.65;22.08;;;25.90;63.80;;;;;;4741477;55;20968;-27
2022/08/24 19:33:34;;;;;;;26.65;22.25;;;25.90;63.80;;;;;;4755199;55;21104;-32
2022/08/24 19:38:35;;;;;;;;;;;25.90;63.80;;;;;;4777834;55;20999;-36
2022/08/24 19:46:01;;;;;;;26.27;21.95;;;25.80;63.70;;;;;;4758241;55;20112;-35
2022/08/24 19:51:07;;;;;;;29.02;21.85;;;25.80;63.70;;;;;;4780043;55;21545;-31
2022/08/24 19:56:08;;;;;;;26.92;21.35;;;25.90;63.70;;;;;;4736611;59;20999;-31
2022/08/24 20:01:22;;;;;;;25.27;21.83;;;25.90;63.70;;;;;;4786490;55;21082;-30
2022/08/24 20:06:33;;;;;;;24.98;21.33;;;25.80;63.70;;;;;;4761191;55;20975;-29
2022/08/24 20:11:35;;;;;;;26.37;21.58;;;25.80;63.60;;;;;;4766611;55;22160;-30
2022/08/24 20:16:40;;;;;;;26.58;21.77;;;25.80;63.60;;;;;;4751693;55;21545;-26
2022/08/24 20:21:41;;;;;;;26.83;22.33;;;25.80;63.60;;;;;;4737099;55;21501;-34
2022/08/24 20:26:46;;;;;;;23.50;20.40;;;25.80;63.60;;;;;;4797069;55;21051;-33
2022/08/24 20:31:48;;;;;;;26.20;20.77;;;25.80;63.50;;;;;;4737984;55;21055;-29
2022/08/24 20:36:50;;;;;;;25.12;21.70;;;25.80;63.50;;;;;;4749149;55;21446;-28
2022/08/24 20:41:54;;;;;;;25.00;19.90;;;25.80;63.50;;;;;;4763003;55;21015;-28
2022/08/24 20:46:55;;;;;;;23.98;20.35;;;25.80;63.50;;;;;;4736271;59;22311;-26
2022/08/24 20:51:55;;;;;;;25.80;21.10;;;25.80;63.50;;;;;;4794789;55;21190;-25
2022/08/24 20:56:56;;;;;;;25.73;19.85;;;25.80;64.10;;;;;;4736559;59;20996;-26
2022/08/24 21:01:58;;;;;;;22.87;19.60;;;25.80;63.40;;;;;;4766085;55;20982;-30
2022/08/24 21:06:59;;;;;;;22.15;18.23;;;25.80;63.40;;;;;;4768053;55;21470;-28
2022/08/24 21:12:00;;;;;;;20.95;18.33;;;25.80;63.40;;;;;;4758671;55;20999;-29
2022/08/24 21:17:05;;;;;;;23.58;18.87;;;25.80;63.40;;;;;;4746919;55;21442;-28
2022/08/24 21:22:07;;;;;;;22.27;18.05;;;25.80;63.30;;;;;;4736971;59;21008;-36
2022/08/24 21:27:09;;;;;;;21.15;17.73;;;25.80;63.30;;;;;;4736501;59;21481;-36
2022/08/24 21:37:29;;;;;;;21.73;17.45;;;25.80;63.30;;;;;;4736564;55;21677;-35
2022/08/24 21:42:30;;;;;;;22.20;17.30;;;25.80;63.30;;;;;;4736398;59;21044;-33
2022/08/24 21:47:31;;;;;;;20.05;17.52;;;25.80;63.20;;;;;;4746528;55;21087;-38
2022/08/24 21:52:32;;;;;;;21.58;18.27;;;25.80;63.20;;;;;;4773394;55;21024;-30
2022/08/24 21:57:33;;;;;;;20.80;16.75;;;25.80;63.20;;;;;;4770212;55;21532;-25
2022/08/24 22:02:34;;;;;;;21.33;17.15;;;25.80;63.20;;;;;;4766550;55;21101;-35
2022/08/24 22:07:35;;;;;;;23.08;16.73;;;25.80;63.20;;;;;;4736702;59;21752;-36
2022/08/24 22:12:39;;;;;;;19.42;16.62;;;25.80;63.20;;;;;;4794517;55;21545;-31
2022/08/24 22:17:39;;;;;;;21.25;17.25;;;25.80;63.20;;;;;;4746598;55;21011;-29
2022/08/24 22:22:42;;;;;;;18.87;16.85;;;25.80;63.20;;;;;;4736874;59;21011;-28
2022/08/24 22:27:45;;;;;;;18.08;16.17;;;25.80;63.20;;;;;;4762942;55;21023;-27
2022/08/24 22:32:45;;;;;;;20.70;17.30;;;25.80;63.10;;;;;;4737203;55;21003;-29
2022/08/24 22:37:46;;;;;;;18.30;15.20;;;25.80;63.20;;;;;;4793466;55;20995;-29
2022/08/24 22:42:47;;;;;;;18.33;15.77;;;25.80;63.10;;;;;;4760830;55;21638;-28
2022/08/24 22:47:48;;;;;;;18.08;15.70;;;25.80;63.10;;;;;;4740811;55;21044;-33
2022/08/24 22:52:49;;;;;;;17.45;15.35;;;25.80;63.10;;;;;;4745075;55;21078;-31
2022/08/24 22:57:50;;;;;;;18.55;15.65;;;25.80;63.10;;;;;;4736080;59;21376;-29
2022/08/24 23:02:51;;;;;;;16.55;14.77;;;25.80;63.10;;;;;;4755224;55;21521;-27
2022/08/24 23:07:51;;;;;;;17.62;15.50;;;25.80;63.10;;;;;;4818227;55;21570;-29
2022/08/24 23:12:52;;;;;;;17.42;15.13;;;25.80;63.40;;;;;;4737249;55;21007;-26
2022/08/24 23:17:53;;;;;;;19.37;15.27;;;25.80;63.00;;;;;;4736328;59;21520;-38
2022/08/24 23:22:55;;;;;;;17.60;14.80;;;25.80;63.10;;;;;;4737189;59;20979;-31
2022/08/24 23:27:56;;;;;;;19.67;15.25;;;25.80;63.10;;;;;;4740335;55;21075;-30
2022/08/24 23:32:57;;;;;;;17.05;14.50;;;25.80;63.00;;;;;;4804348;55;21063;-36
2022/08/24 23:37:59;;;;;;;19.73;15.45;;;25.80;63.10;;;;;;4736467;59;21712;-34
2022/08/24 23:42:59;;;;;;;15.70;14.05;;;25.80;63.00;;;;;;4736488;55;20964;-35
2022/08/24 23:48:00;;;;;;;16.23;14.07;;;25.80;62.90;;;;;;4741760;55;21003;-36
2022/08/24 23:53:01;;;;;;;16.02;14.23;;;25.80;62.90;;;;;;4754616;55;21533;-29
2022/08/24 23:58:02;;;;;;;15.73;14.02;;;25.80;63.10;;;;;;4741523;55;20995;-26
